createdAt,value
2023-08-24T00:01:54.500Z,22.70
2023-08-24T00:04:21.242Z,22.70
2023-08-24T00:06:47.918Z,22.70
2023-08-24T00:09:16.478Z,22.70
2023-08-24T00:11:43.392Z,22.70
2023-08-24T00:14:10.937Z,22.80
2023-08-24T00:16:38.136Z,22.80
2023-08-24T00:19:05.106Z,22.70
2023-08-24T00:21:32.092Z,22.70
2023-08-24T00:23:58.822Z,22.70
2023-08-24T00:26:26.123Z,22.70
2023-08-24T00:28:53.074Z,22.70
2023-08-24T00:31:20.031Z,22.60
2023-08-24T00:33:46.874Z,22.70
2023-08-24T00:36:13.731Z,22.70
2023-08-24T00:38:40.522Z,22.70
2023-08-24T00:41:07.258Z,22.70
2023-08-24T00:43:34.042Z,22.70
2023-08-24T00:46:02.770Z,22.70
2023-08-24T00:48:30.491Z,22.70
2023-08-24T00:51:00.391Z,22.60
2023-08-24T00:53:29.234Z,22.60
2023-08-24T00:55:56.239Z,22.50
2023-08-24T00:58:24.114Z,22.40
2023-08-24T01:00:53.706Z,22.40
2023-08-24T01:03:23.126Z,22.30
2023-08-24T01:05:49.805Z,22.20
2023-08-24T01:08:17.070Z,22.20
2023-08-24T01:11:03.564Z,22.10
2023-08-24T01:13:50.683Z,22.00
2023-08-24T01:16:41.683Z,21.60
2023-08-24T01:19:25.439Z,21.30
2023-08-24T01:21:55.162Z,20.90
2023-08-24T01:24:46.055Z,20.70
2023-08-24T01:27:14.125Z,20.50
2023-08-24T01:29:41.853Z,20.30
2023-08-24T01:32:13.040Z,20.10
2023-08-24T01:34:40.120Z,20.00
2023-08-24T01:37:08.307Z,19.90
2023-08-24T01:39:49.222Z,19.80
2023-08-24T01:42:22.859Z,19.70
2023-08-24T01:44:55.543Z,19.50
2023-08-24T01:47:23.713Z,19.50
2023-08-24T01:49:50.545Z,19.50
2023-08-24T01:52:18.212Z,19.40
2023-08-24T01:54:45.029Z,19.40
2023-08-24T01:57:12.021Z,19.30
2023-08-24T01:59:38.717Z,19.30
2023-08-24T02:02:05.574Z,19.20
2023-08-24T02:04:32.310Z,19.20
2023-08-24T02:06:58.970Z,19.20
2023-08-24T02:09:25.675Z,19.20
2023-08-24T02:11:52.361Z,19.10
2023-08-24T02:14:19.141Z,19.10
2023-08-24T02:16:46.704Z,19.10
2023-08-24T02:19:13.428Z,19.10
2023-08-24T02:21:40.160Z,19.10
2023-08-24T02:24:07.684Z,19.10
2023-08-24T02:26:34.435Z,19.10
2023-08-24T02:29:01.319Z,19.10
2023-08-24T02:31:28.146Z,19.20
2023-08-24T02:33:54.896Z,19.20
2023-08-24T02:36:21.583Z,19.20
2023-08-24T02:38:48.442Z,19.30
2023-08-24T02:41:15.629Z,19.30
2023-08-24T02:43:43.053Z,19.30
2023-08-24T02:46:11.746Z,19.40
2023-08-24T02:48:38.533Z,19.50
2023-08-24T02:51:06.430Z,19.50
2023-08-24T02:53:33.685Z,19.60
2023-08-24T02:56:00.713Z,19.60
2023-08-24T02:58:28.153Z,19.60
2023-08-24T03:00:55.132Z,19.60
2023-08-24T03:03:22.187Z,19.70
2023-08-24T03:05:59.803Z,19.70
2023-08-24T03:08:26.833Z,19.70
2023-08-24T03:10:54.179Z,19.70
2023-08-24T03:13:21.038Z,19.80
2023-08-24T03:15:47.752Z,19.80
2023-08-24T03:18:15.164Z,19.90
2023-08-24T03:20:42.813Z,19.80
2023-08-24T03:23:09.604Z,19.90
2023-08-24T03:25:38.242Z,19.90
2023-08-24T03:28:05.865Z,19.80
2023-08-24T03:30:32.796Z,19.80
2023-08-24T03:33:00.649Z,19.80
2023-08-24T03:35:27.550Z,19.80
2023-08-24T03:37:54.307Z,19.80
2023-08-24T03:40:21.516Z,19.90
2023-08-24T03:42:48.332Z,19.90
2023-08-24T03:45:15.299Z,19.80
2023-08-24T03:47:42.396Z,19.80
2023-08-24T03:50:09.332Z,19.90
2023-08-24T03:52:36.143Z,19.90
2023-08-24T03:55:03.015Z,19.90
2023-08-24T03:57:29.728Z,20.00
2023-08-24T03:59:57.050Z,20.00
2023-08-24T04:02:23.776Z,20.00
2023-08-24T04:04:51.889Z,20.00
2023-08-24T04:07:18.510Z,20.00
2023-08-24T04:09:46.567Z,20.00
2023-08-24T04:12:13.345Z,20.00
2023-08-24T04:14:40.253Z,20.00
2023-08-24T04:17:06.916Z,20.00
2023-08-24T04:19:33.699Z,20.00
2023-08-24T04:22:00.369Z,19.90
2023-08-24T04:24:27.078Z,19.90
2023-08-24T04:26:53.803Z,19.90
2023-08-24T04:29:20.625Z,20.00
2023-08-24T04:31:47.352Z,20.00
2023-08-24T04:34:14.017Z,20.00
2023-08-24T04:36:40.730Z,20.00
2023-08-24T04:39:07.398Z,20.00
2023-08-24T04:41:34.301Z,20.00
2023-08-24T04:44:01.132Z,20.00
2023-08-24T04:46:28.021Z,20.00
2023-08-24T04:48:54.773Z,20.00
2023-08-24T04:51:21.629Z,20.10
2023-08-24T04:53:48.337Z,20.00
2023-08-24T04:56:15.805Z,20.00
2023-08-24T04:59:01.336Z,20.00
2023-08-24T05:01:28.555Z,19.90
2023-08-24T05:03:55.536Z,19.90
2023-08-24T05:06:23.087Z,19.90
2023-08-24T05:08:49.933Z,19.90
2023-08-24T05:11:21.397Z,20.00
2023-08-24T05:13:48.084Z,20.00
2023-08-24T05:16:15.181Z,20.00
2023-08-24T05:18:41.953Z,20.00
2023-08-24T05:21:08.778Z,20.00
2023-08-24T05:23:35.908Z,20.00
2023-08-24T05:26:03.957Z,20.10
2023-08-24T05:28:32.268Z,20.10
2023-08-24T05:30:59.764Z,20.10
2023-08-24T05:33:28.418Z,20.20
2023-08-24T05:35:55.118Z,20.20
2023-08-24T05:38:21.920Z,20.20
2023-08-24T05:40:49.703Z,20.20
2023-08-24T05:43:16.468Z,20.30
2023-08-24T05:45:45.879Z,20.30
2023-08-24T05:48:13.215Z,20.30
2023-08-24T05:50:45.403Z,20.40
2023-08-24T05:53:12.423Z,20.40
2023-08-24T05:55:39.597Z,20.40
2023-08-24T05:58:06.672Z,20.40
2023-08-24T06:00:34.010Z,20.50
2023-08-24T06:03:00.939Z,20.50
2023-08-24T06:05:27.787Z,20.60
2023-08-24T06:07:54.664Z,20.60
2023-08-24T06:10:21.501Z,20.70
2023-08-24T06:12:48.256Z,20.70
2023-08-24T06:15:15.005Z,20.70
2023-08-24T06:17:42.201Z,20.80
2023-08-24T06:20:11.689Z,20.90
2023-08-24T06:22:38.777Z,20.90
2023-08-24T06:25:06.242Z,21.00
2023-08-24T06:27:33.097Z,21.10
2023-08-24T06:29:59.901Z,21.10
2023-08-24T06:32:26.662Z,21.20
2023-08-24T06:34:53.506Z,21.20
2023-08-24T06:37:20.429Z,21.30
2023-08-24T06:39:47.303Z,21.40
2023-08-24T06:42:14.066Z,21.50
2023-08-24T06:44:40.868Z,21.60
2023-08-24T06:47:07.595Z,21.70
2023-08-24T06:49:34.264Z,21.70
2023-08-24T06:52:01.357Z,21.80
2023-08-24T06:54:29.208Z,21.90
2023-08-24T06:56:57.143Z,21.90
2023-08-24T06:59:23.874Z,22.00
2023-08-24T07:01:50.566Z,22.10
2023-08-24T07:04:22.601Z,22.10
2023-08-24T07:06:50.069Z,22.30
2023-08-24T07:09:16.931Z,22.30
2023-08-24T07:11:43.605Z,22.40
2023-08-24T07:14:10.361Z,22.50
2023-08-24T07:16:37.205Z,22.50
2023-08-24T07:19:05.252Z,22.60
2023-08-24T07:21:31.993Z,22.70
2023-08-24T07:23:58.892Z,22.80
2023-08-24T07:26:26.754Z,22.90
2023-08-24T07:28:53.550Z,23.00
2023-08-24T07:31:20.339Z,23.10
2023-08-24T07:33:47.096Z,23.20
2023-08-24T07:36:13.883Z,23.30
2023-08-24T07:38:40.593Z,23.50
2023-08-24T07:41:07.494Z,23.50
2023-08-24T07:43:35.168Z,23.60
2023-08-24T07:46:02.111Z,23.70
2023-08-24T07:48:28.969Z,23.80
2023-08-24T07:50:55.808Z,23.90
2023-08-24T07:53:22.478Z,24.00
2023-08-24T07:55:49.174Z,24.10
2023-08-24T07:58:15.869Z,24.20
2023-08-24T08:00:42.807Z,24.30
2023-08-24T08:03:09.560Z,24.40
2023-08-24T08:05:36.443Z,24.50
2023-08-24T08:08:03.432Z,24.70
2023-08-24T08:10:30.278Z,24.80
2023-08-24T08:12:57.226Z,24.80
2023-08-24T08:15:24.132Z,25.00
2023-08-24T08:17:51.403Z,25.10
2023-08-24T08:20:19.663Z,25.20
2023-08-24T08:22:46.419Z,25.40
2023-08-24T08:25:18.907Z,25.50
2023-08-24T08:27:45.687Z,25.70
2023-08-24T08:30:13.225Z,25.90
2023-08-24T08:32:40.045Z,26.00
2023-08-24T08:35:07.193Z,26.20
2023-08-24T08:37:34.101Z,26.30
2023-08-24T08:40:01.111Z,26.50
2023-08-24T08:42:27.953Z,26.70
2023-08-24T08:44:55.276Z,26.90
2023-08-24T08:47:23.714Z,27.10
2023-08-24T08:49:51.506Z,27.20
2023-08-24T08:52:18.611Z,27.40
2023-08-24T08:54:45.377Z,27.70
2023-08-24T08:57:12.920Z,27.80
2023-08-24T08:59:40.168Z,28.00
2023-08-24T09:02:09.013Z,28.20
2023-08-24T09:04:35.813Z,28.50
2023-08-24T09:07:05.704Z,28.70
2023-08-24T09:09:34.398Z,28.90
2023-08-24T09:12:01.922Z,29.10
2023-08-24T09:14:28.624Z,29.40
2023-08-24T09:16:55.698Z,29.60
2023-08-24T09:19:32.192Z,29.90
2023-08-24T09:21:59.818Z,30.10
2023-08-24T09:24:34.306Z,30.30
2023-08-24T09:27:06.298Z,30.50
2023-08-24T09:29:38.460Z,30.80
2023-08-24T09:32:06.743Z,31.00
2023-08-24T09:34:33.655Z,31.30
2023-08-24T09:37:00.641Z,31.50
2023-08-24T09:39:27.408Z,31.80
2023-08-24T09:41:55.364Z,32.10
2023-08-24T09:44:22.130Z,32.30
2023-08-24T09:46:50.749Z,32.60
2023-08-24T09:49:17.477Z,32.90
2023-08-24T09:51:45.797Z,33.10
2023-08-24T09:54:14.421Z,33.40
2023-08-24T09:56:43.061Z,33.60
2023-08-24T09:59:23.062Z,33.80
2023-08-24T10:01:51.443Z,34.10
2023-08-24T10:04:25.916Z,34.30
2023-08-24T10:07:23.458Z,34.50
2023-08-24T10:10:04.264Z,34.60
2023-08-24T10:12:37.721Z,34.60
2023-08-24T10:15:05.121Z,34.70
2023-08-24T10:17:37.509Z,34.70
2023-08-24T10:20:07.348Z,34.80
2023-08-24T10:22:36.592Z,34.80
2023-08-24T10:25:03.996Z,34.90
2023-08-24T10:27:31.262Z,34.90
2023-08-24T10:30:00.085Z,35.00
2023-08-24T10:32:28.078Z,35.00
2023-08-24T10:34:55.120Z,35.00
2023-08-24T10:37:28.844Z,35.00
2023-08-24T10:39:56.235Z,34.90
2023-08-24T10:42:23.127Z,34.90
2023-08-24T10:44:52.524Z,34.90
2023-08-24T10:47:24.236Z,34.90
2023-08-24T10:49:57.228Z,34.80
2023-08-24T10:52:31.321Z,34.80
2023-08-24T10:54:58.220Z,34.80
2023-08-24T10:57:39.213Z,34.80
2023-08-24T11:00:09.340Z,34.80
2023-08-24T11:02:54.614Z,34.70
2023-08-24T11:05:30.365Z,34.70
2023-08-24T11:08:00.985Z,34.70
2023-08-24T11:10:34.490Z,34.80
2023-08-24T11:13:05.597Z,34.70
2023-08-24T11:15:33.693Z,34.60
2023-08-24T11:18:28.435Z,34.50
2023-08-24T11:20:56.159Z,34.50
2023-08-24T11:23:24.677Z,34.40
2023-08-24T11:25:57.688Z,34.30
2023-08-24T11:28:31.904Z,34.30
2023-08-24T11:30:59.928Z,34.40
2023-08-24T11:33:35.194Z,34.40
2023-08-24T11:36:04.999Z,34.60
2023-08-24T11:38:42.379Z,34.70
2023-08-24T11:41:20.264Z,34.70
2023-08-24T11:43:49.178Z,34.80
2023-08-24T11:46:20.069Z,34.80
2023-08-24T11:48:47.322Z,34.80
2023-08-24T11:51:16.319Z,34.90
2023-08-24T11:53:47.282Z,34.90
2023-08-24T11:56:15.289Z,34.90
2023-08-24T11:58:42.826Z,34.90
2023-08-24T12:01:11.187Z,34.90
2023-08-24T12:03:39.012Z,34.90
2023-08-24T12:06:14.358Z,34.80
2023-08-24T12:08:48.482Z,34.70
2023-08-24T12:11:20.541Z,34.60
2023-08-24T12:13:49.904Z,34.50
2023-08-24T12:16:18.170Z,34.40
2023-08-24T12:18:54.250Z,34.30
2023-08-24T12:21:22.164Z,34.20
2023-08-24T12:24:10.411Z,34.10
2023-08-24T12:26:37.559Z,34.10
2023-08-24T12:29:06.612Z,34.10
2023-08-24T12:31:37.460Z,34.10
2023-08-24T12:34:10.153Z,34.20
2023-08-24T12:36:42.741Z,34.40
2023-08-24T12:39:11.703Z,34.50
2023-08-24T12:41:38.510Z,34.50
2023-08-24T12:44:10.564Z,34.40
2023-08-24T12:46:39.644Z,34.50
2023-08-24T12:49:06.763Z,34.40
2023-08-24T12:51:33.545Z,34.40
2023-08-24T12:54:00.301Z,34.30
2023-08-24T12:56:27.083Z,34.20
2023-08-24T12:58:53.901Z,34.20
2023-08-24T13:01:20.706Z,34.10
2023-08-24T13:03:47.450Z,34.30
2023-08-24T13:06:24.051Z,34.30
2023-08-24T13:08:51.650Z,34.50
2023-08-24T13:11:18.338Z,34.90
2023-08-24T13:13:46.726Z,35.20
2023-08-24T13:16:14.071Z,35.50
2023-08-24T13:18:41.068Z,35.70
2023-08-24T13:21:07.810Z,35.80
2023-08-24T13:23:35.079Z,36.00
2023-08-24T13:26:02.140Z,36.20
2023-08-24T13:28:30.861Z,36.40
2023-08-24T13:30:57.800Z,36.80
2023-08-24T13:33:24.635Z,37.10
2023-08-24T13:35:51.334Z,37.50
2023-08-24T13:38:18.058Z,37.80
2023-08-24T13:40:46.099Z,38.10
2023-08-24T13:43:14.151Z,38.40
2023-08-24T13:45:41.247Z,38.80
2023-08-24T13:48:09.485Z,39.20
2023-08-24T13:50:36.427Z,39.40
2023-08-24T13:53:03.506Z,39.70
2023-08-24T13:55:31.186Z,39.90
2023-08-24T13:57:57.921Z,40.10
2023-08-24T14:00:24.731Z,40.30
2023-08-24T14:02:51.995Z,40.50
2023-08-24T14:05:19.149Z,40.80
2023-08-24T14:07:45.966Z,41.10
2023-08-24T14:10:13.267Z,41.30
2023-08-24T14:12:40.030Z,41.50
2023-08-24T14:15:07.816Z,41.80
2023-08-24T14:17:34.905Z,41.90
2023-08-24T14:20:02.031Z,42.00
2023-08-24T14:22:28.759Z,42.00
2023-08-24T14:24:55.546Z,42.20
2023-08-24T14:27:23.056Z,42.20
2023-08-24T14:29:49.785Z,42.30
2023-08-24T14:32:16.665Z,42.50
2023-08-24T14:34:44.529Z,42.50
2023-08-24T14:37:11.378Z,42.50
2023-08-24T14:39:38.215Z,42.50
2023-08-24T14:42:05.688Z,42.50
2023-08-24T14:44:32.626Z,42.40
2023-08-24T14:46:59.441Z,42.30
2023-08-24T14:49:26.120Z,42.30
2023-08-24T14:51:52.939Z,42.20
2023-08-24T14:54:19.704Z,42.00
2023-08-24T14:56:46.453Z,41.80
2023-08-24T14:59:13.166Z,41.60
2023-08-24T15:01:39.977Z,41.50
2023-08-24T15:04:06.838Z,41.40
2023-08-24T15:06:35.020Z,41.30
2023-08-24T15:09:01.839Z,41.20
2023-08-24T15:11:29.023Z,41.20
2023-08-24T15:13:55.758Z,41.10
2023-08-24T15:16:22.528Z,41.00
2023-08-24T15:18:49.447Z,40.90
2023-08-24T15:21:16.345Z,40.80
2023-08-24T15:23:43.532Z,40.70
2023-08-24T15:26:10.330Z,40.70
2023-08-24T15:28:38.733Z,40.70
2023-08-24T15:31:06.033Z,40.70
2023-08-24T15:33:33.252Z,40.60
2023-08-24T15:36:00.109Z,40.60
2023-08-24T15:38:27.085Z,40.70
2023-08-24T15:40:57.146Z,40.50
2023-08-24T15:43:24.087Z,40.40
2023-08-24T15:45:52.701Z,40.40
2023-08-24T15:48:19.664Z,40.40
2023-08-24T15:50:46.548Z,40.40
2023-08-24T15:53:13.366Z,40.40
2023-08-24T15:55:40.074Z,40.20
2023-08-24T15:58:06.936Z,40.00
2023-08-24T16:00:34.777Z,39.80
2023-08-24T16:03:01.633Z,39.60
2023-08-24T16:05:28.583Z,39.40
2023-08-24T16:07:56.135Z,39.20
2023-08-24T16:10:23.130Z,39.20
2023-08-24T16:12:50.394Z,39.20
2023-08-24T16:15:17.776Z,39.20
2023-08-24T16:17:44.873Z,39.10
2023-08-24T16:20:12.717Z,39.00
2023-08-24T16:22:39.937Z,38.80
2023-08-24T16:25:07.250Z,38.60
2023-08-24T16:27:35.636Z,38.30
2023-08-24T16:30:06.042Z,38.00
2023-08-24T16:32:33.816Z,37.70
2023-08-24T16:35:00.581Z,37.50
2023-08-24T16:37:27.356Z,37.20
2023-08-24T16:39:54.768Z,37.00
2023-08-24T16:42:21.664Z,36.80
2023-08-24T16:44:48.595Z,36.50
2023-08-24T16:47:15.771Z,36.40
2023-08-24T16:49:42.638Z,36.20
2023-08-24T16:52:09.409Z,35.90
2023-08-24T16:54:36.139Z,35.70
2023-08-24T16:57:03.045Z,35.50
2023-08-24T16:59:31.072Z,35.30
2023-08-24T17:01:58.124Z,35.20
2023-08-24T17:04:25.217Z,35.00
2023-08-24T17:06:52.084Z,34.90
2023-08-24T17:09:19.084Z,34.70
2023-08-24T17:11:45.879Z,34.70
2023-08-24T17:14:12.693Z,34.60
2023-08-24T17:16:40.416Z,34.50
2023-08-24T17:19:08.273Z,34.40
2023-08-24T17:21:35.307Z,34.30
2023-08-24T17:24:02.067Z,34.10
2023-08-24T17:26:29.104Z,34.10
2023-08-24T17:28:56.356Z,33.90
2023-08-24T17:31:23.456Z,33.80
2023-08-24T17:33:50.489Z,33.70
2023-08-24T17:36:17.245Z,33.40
2023-08-24T17:38:43.991Z,33.30
2023-08-24T17:41:10.681Z,33.20
2023-08-24T17:43:41.556Z,33.00
2023-08-24T17:46:08.617Z,32.90
2023-08-24T17:48:35.612Z,32.70
2023-08-24T17:51:08.939Z,32.50
2023-08-24T17:53:35.972Z,32.40
2023-08-24T17:56:03.547Z,32.20
2023-08-24T17:58:30.610Z,32.10
2023-08-24T18:00:57.750Z,31.90
2023-08-24T18:03:24.879Z,31.80
2023-08-24T18:05:55.331Z,31.70
2023-08-24T18:08:22.812Z,31.50
2023-08-24T18:10:49.696Z,31.40
2023-08-24T18:13:17.081Z,31.20
2023-08-24T18:15:44.506Z,31.10
2023-08-24T18:18:11.370Z,31.00
2023-08-24T18:20:39.050Z,30.90
2023-08-24T18:23:06.222Z,30.80
2023-08-24T18:25:33.039Z,30.70
2023-08-24T18:28:00.680Z,30.60
2023-08-24T18:30:27.433Z,30.40
2023-08-24T18:32:54.233Z,30.30
2023-08-24T18:35:21.273Z,30.20
2023-08-24T18:37:48.307Z,30.20
2023-08-24T18:40:15.057Z,30.10
2023-08-24T18:42:41.717Z,30.00
2023-08-24T18:45:08.715Z,29.90
2023-08-24T18:47:35.555Z,29.80
2023-08-24T18:50:02.830Z,29.70
2023-08-24T18:52:30.113Z,29.60
2023-08-24T18:54:59.574Z,29.50
2023-08-24T18:57:26.249Z,29.50
2023-08-24T18:59:53.554Z,29.40
2023-08-24T19:02:21.922Z,29.30
2023-08-24T19:04:50.501Z,29.20
2023-08-24T19:07:17.283Z,29.10
2023-08-24T19:09:44.082Z,29.10
2023-08-24T19:12:10.926Z,29.00
2023-08-24T19:14:37.870Z,29.00
2023-08-24T19:17:04.906Z,29.00
2023-08-24T19:19:32.030Z,28.90
2023-08-24T19:21:58.864Z,28.80
2023-08-24T19:24:25.626Z,28.70
2023-08-24T19:26:52.554Z,28.60
2023-08-24T19:29:20.002Z,28.60
2023-08-24T19:31:47.228Z,28.50
2023-08-24T19:34:14.146Z,28.50
2023-08-24T19:36:40.907Z,28.40
2023-08-24T19:39:07.689Z,28.30
2023-08-24T19:41:40.865Z,28.30
2023-08-24T19:44:14.025Z,28.20
2023-08-24T19:46:40.760Z,28.20
2023-08-24T19:49:08.788Z,28.20
2023-08-24T19:51:35.764Z,28.10
2023-08-24T19:54:02.434Z,28.10
2023-08-24T19:56:29.477Z,28.00
2023-08-24T19:58:56.298Z,28.00
2023-08-24T20:01:23.198Z,28.00
2023-08-24T20:03:50.065Z,28.00
2023-08-24T20:06:21.225Z,27.90
2023-08-24T20:08:48.356Z,27.90
2023-08-24T20:11:15.185Z,27.90
2023-08-24T20:13:42.163Z,27.90
2023-08-24T20:16:09.028Z,27.90
2023-08-24T20:18:35.745Z,27.90
2023-08-24T20:21:03.504Z,27.80
2023-08-24T20:23:31.603Z,27.80
2023-08-24T20:25:59.056Z,27.80
2023-08-24T20:28:29.912Z,27.70
2023-08-24T20:30:56.701Z,27.70
2023-08-24T20:33:23.422Z,27.70
2023-08-24T20:35:50.194Z,27.70
2023-08-24T20:38:16.870Z,27.70
2023-08-24T20:40:43.614Z,27.60
2023-08-24T20:43:10.796Z,27.60
2023-08-24T20:45:38.072Z,27.60
2023-08-24T20:48:05.191Z,27.60
2023-08-24T20:50:32.102Z,27.60
2023-08-24T20:53:01.264Z,27.50
2023-08-24T20:55:28.118Z,27.50
2023-08-24T20:57:55.224Z,27.40
2023-08-24T21:00:22.268Z,27.40
2023-08-24T21:02:49.086Z,27.40
2023-08-24T21:05:15.999Z,27.40
2023-08-24T21:07:42.903Z,27.30
2023-08-24T21:10:09.922Z,27.30
2023-08-24T21:12:36.656Z,27.30
2023-08-24T21:15:03.609Z,27.30
2023-08-24T21:17:30.347Z,27.20
2023-08-24T21:19:58.578Z,27.20
2023-08-24T21:22:25.421Z,27.20
2023-08-24T21:24:52.296Z,27.20
2023-08-24T21:27:19.023Z,27.20
2023-08-24T21:29:45.783Z,27.20
2023-08-24T21:32:12.476Z,27.20
2023-08-24T21:34:39.215Z,27.20
2023-08-24T21:37:06.092Z,27.20
2023-08-24T21:39:32.920Z,27.10
2023-08-24T21:42:00.884Z,27.20
2023-08-24T21:44:27.850Z,27.20
2023-08-24T21:46:54.539Z,27.20
2023-08-24T21:49:21.330Z,27.20
2023-08-24T21:51:48.064Z,27.20
2023-08-24T21:54:14.783Z,27.20
2023-08-24T21:56:41.490Z,27.20
2023-08-24T21:59:08.704Z,27.10
2023-08-24T22:01:36.063Z,27.10
2023-08-24T22:04:02.844Z,27.10
2023-08-24T22:06:29.848Z,27.10
2023-08-24T22:08:56.508Z,27.10
2023-08-24T22:11:23.198Z,27.10
2023-08-24T22:13:49.865Z,27.10
2023-08-24T22:16:16.559Z,27.00
2023-08-24T22:18:43.276Z,27.10
2023-08-24T22:21:09.951Z,27.00
2023-08-24T22:23:36.673Z,27.00
2023-08-24T22:26:04.018Z,27.00
2023-08-24T22:28:30.657Z,27.00
2023-08-24T22:30:57.746Z,27.00
2023-08-24T22:33:24.795Z,27.10
2023-08-24T22:35:52.899Z,27.10
2023-08-24T22:38:19.707Z,27.00
2023-08-24T22:40:46.412Z,27.00
2023-08-24T22:43:13.079Z,27.00
2023-08-24T22:45:41.152Z,27.00
2023-08-24T22:48:10.153Z,27.00
2023-08-24T22:50:37.087Z,27.00
2023-08-24T22:53:05.228Z,27.00
2023-08-24T22:55:32.897Z,27.00
2023-08-24T22:57:59.627Z,26.90
2023-08-24T23:00:26.483Z,26.90
2023-08-24T23:02:53.217Z,27.00
2023-08-24T23:05:20.081Z,26.90
2023-08-24T23:07:46.824Z,26.90
2023-08-24T23:10:13.581Z,27.00
2023-08-24T23:12:40.274Z,27.00
2023-08-24T23:15:08.136Z,27.00
2023-08-24T23:17:34.838Z,26.90
2023-08-24T23:20:06.238Z,27.00
2023-08-24T23:22:32.877Z,26.90
2023-08-24T23:24:59.627Z,26.90
2023-08-24T23:27:26.356Z,26.80
2023-08-24T23:29:57.572Z,26.80
2023-08-24T23:32:24.316Z,26.70
2023-08-24T23:34:50.977Z,26.70
2023-08-24T23:37:17.759Z,26.70
2023-08-24T23:39:44.504Z,26.70
2023-08-24T23:42:11.163Z,26.70
2023-08-24T23:44:38.868Z,26.60
2023-08-24T23:47:05.792Z,26.60
2023-08-24T23:49:32.502Z,26.60
2023-08-24T23:51:59.262Z,26.70
2023-08-24T23:54:26.897Z,26.70
2023-08-24T23:56:53.556Z,26.70
2023-08-24T23:59:20.209Z,26.80
